Time;durP1;ratioP1;P1;durP2;ratioP2;P2;SDS_P1;SDS_P2;PMS_P1;PMS_P2;Temp;Humidity;BMP_temperature;BMP_pressure;BME280_temperature;BME280_humidity;BME280_pressure;Samples;Min_cycle;Max_cycle;Signal;HPM_P1;HPM_P2
2023/04/14 00:01:40;;;;;;;;;;;5.80;99.90;;;;;;5098684;28;20424;-66
2023/04/14 00:04:07;;;;;;;;;;;5.60;99.90;;;;;;5106889;28;19930;-65
2023/04/14 00:06:35;;;;;;;;;;;5.60;99.90;;;;;;5103439;28;19924;-66
2023/04/14 00:09:02;;;;;;;;;;;5.50;99.90;;;;;;5103573;28;19923;-65
2023/04/14 00:11:28;;;;;;;;;;;5.50;99.90;;;;;;5100227;28;19923;-66
2023/04/14 00:13:56;;;;;;;;;;;5.50;99.90;;;;;;5103309;28;19940;-66
2023/04/14 00:16:23;;;;;;;;;;;5.50;99.90;;;;;;5103449;28;20346;-65
2023/04/14 00:18:49;;;;;;;;;;;5.40;99.90;;;;;;5102475;28;19928;-66
2023/04/14 00:21:16;;;;;;;;;;;5.40;99.90;;;;;;5102021;28;19932;-65
2023/04/14 00:23:44;;;;;;;;;;;5.30;99.90;;;;;;5099582;28;19931;-66
2023/04/14 00:26:11;;;;;;;;;;;5.30;99.90;;;;;;5106829;28;19923;-66
2023/04/14 00:28:41;;;;;;;;;;;5.20;99.90;;;;;;5101751;28;20306;-66
2023/04/14 00:31:08;;;;;;;;;;;5.20;99.90;;;;;;5102570;28;19924;-66
2023/04/14 00:33:35;;;;;;;;;;;5.20;99.90;;;;;;5102325;28;19928;-66
2023/04/14 00:36:02;;;;;;;;;;;5.10;99.90;;;;;;5102775;28;19924;-66
2023/04/14 00:38:29;;;;;;;;;;;5.10;99.90;;;;;;5102965;28;20019;-65
2023/04/14 00:40:57;;;;;;;;;;;5.10;99.90;;;;;;5103040;28;19932;-66
2023/04/14 00:43:24;;;;;;;;;;;5.00;99.90;;;;;;5106167;28;19935;-66
2023/04/14 00:45:52;;;;;;;;;;;4.90;99.90;;;;;;5101009;28;19923;-65
2023/04/14 00:48:19;;;;;;;;;;;4.90;99.90;;;;;;5099558;28;19928;-66
2023/04/14 00:50:47;;;;;;;;;;;4.90;99.90;;;;;;5100815;28;19928;-66
2023/04/14 00:53:14;;;;;;;;;;;4.80;99.90;;;;;;5102765;28;19947;-66
2023/04/14 00:55:41;;;;;;;;;;;4.80;99.90;;;;;;5099254;28;19928;-66
2023/04/14 00:58:10;;;;;;;;;;;4.80;99.90;;;;;;5105487;28;19968;-66
2023/04/14 01:00:36;;;;;;;;;;;4.80;99.90;;;;;;5098088;28;20015;-65
2023/04/14 01:03:03;;;;;;;;;;;4.70;99.90;;;;;;5102450;28;19968;-66
2023/04/14 01:05:30;;;;;;;;;;;4.70;99.90;;;;;;5107139;28;19924;-65
2023/04/14 01:07:56;;;;;;;;;;;4.70;99.90;;;;;;5099482;28;20354;-66
2023/04/14 01:10:23;;;;;;;;;;;4.60;99.90;;;;;;5105019;28;19964;-65
2023/04/14 01:12:57;;;;;;;;;;;4.60;99.90;;;;;;5097250;28;19924;-66
2023/04/14 01:15:28;;;;;;;;;;;4.60;99.90;;;;;;5099291;28;20357;-65
2023/04/14 01:17:58;;;;;;;;;;;4.60;99.90;;;;;;5105604;28;19993;-65
2023/04/14 01:20:27;;;;;;;;;;;4.50;99.90;;;;;;5098851;28;20340;-66
2023/04/14 01:22:58;;;;;;;;;;;4.50;99.90;;;;;;5096652;28;19924;-66
2023/04/14 01:25:33;;;;;;;;;;;4.40;99.90;;;;;;5097541;28;19928;-66
2023/04/14 01:28:13;;;;;;;;;;;4.40;99.90;;;;;;5095160;28;20014;-66
2023/04/14 01:30:56;;;;;;;;;;;4.40;99.90;;;;;;5100960;28;19924;-65
2023/04/14 01:33:26;;;;;;;;;;;4.40;99.90;;;;;;5093446;28;20353;-66
2023/04/14 01:35:54;;;;;;;;;;;4.40;99.90;;;;;;5102910;28;19984;-65
2023/04/14 01:38:24;;;;;;;;;;;4.30;99.90;;;;;;5106678;28;19932;-65
2023/04/14 01:40:56;;;;;;;;;;;4.30;99.90;;;;;;5106807;28;19924;-64
2023/04/14 01:43:25;;;;;;;;;;;4.30;99.90;;;;;;5090893;28;19977;-65
2023/04/14 01:45:53;;;;;;;;;;;4.40;99.90;;;;;;5105351;28;19928;-65
2023/04/14 01:48:20;;;;;;;;;;;4.40;99.90;;;;;;5100073;28;20093;-65
2023/04/14 01:50:48;;;;;;;;;;;4.30;99.90;;;;;;5102686;28;19943;-65
2023/04/14 01:53:16;;;;;;;;;;;4.30;99.90;;;;;;5110457;28;19924;-65
2023/04/14 01:55:44;;;;;;;;;;;4.30;99.90;;;;;;5099213;28;19946;-65
2023/04/14 01:58:12;;;;;;;;;;;4.40;99.90;;;;;;5099858;28;19973;-66
2023/04/14 02:00:40;;;;;;;;;;;4.50;99.90;;;;;;5098253;28;19924;-65
2023/04/14 02:03:07;;;;;;;;;;;4.50;99.90;;;;;;5105025;28;20325;-66
2023/04/14 02:05:36;;;;;;;;;;;4.40;99.90;;;;;;5101080;28;20048;-64
2023/04/14 02:08:06;;;;;;;;;;;4.30;99.90;;;;;;5109197;28;19928;-66
2023/04/14 02:10:34;;;;;;;;;;;4.30;99.90;;;;;;5101984;28;19924;-65
2023/04/14 02:13:04;;;;;;;;;;;4.20;99.90;;;;;;5101746;28;19924;-64
2023/04/14 02:15:31;;;;;;;;;;;4.20;99.90;;;;;;5103665;28;19994;-66
2023/04/14 02:17:58;;;;;;;;;;;4.10;99.90;;;;;;5106125;28;19923;-66
2023/04/14 02:20:26;;;;;;;;;;;4.10;99.90;;;;;;5107221;28;19925;-66
2023/04/14 02:22:53;;;;;;;;;;;4.00;99.90;;;;;;5102046;28;19928;-65
2023/04/14 02:25:21;;;;;;;;;;;4.00;99.90;;;;;;5102020;28;19936;-65
2023/04/14 02:27:49;;;;;;;;;;;4.00;99.90;;;;;;5104813;28;19931;-64
2023/04/14 02:30:20;;;;;;;;;;;4.00;99.90;;;;;;5098927;28;19927;-66
2023/04/14 02:32:49;;;;;;;;;;;4.00;99.90;;;;;;5107825;28;19935;-65
2023/04/14 02:35:19;;;;;;;;;;;3.90;99.90;;;;;;5103473;28;19924;-66
2023/04/14 02:37:48;;;;;;;;;;;3.90;99.90;;;;;;5109060;28;19935;-66
2023/04/14 02:40:19;;;;;;;;;;;3.90;99.90;;;;;;5104480;28;19928;-66
2023/04/14 02:42:50;;;;;;;;;;;3.90;99.90;;;;;;5097110;28;20005;-65
2023/04/14 02:45:21;;;;;;;;;;;3.80;99.90;;;;;;5102988;28;19924;-67
2023/04/14 02:47:52;;;;;;;;;;;3.80;99.90;;;;;;5104486;28;19928;-66
2023/04/14 02:50:20;;;;;;;;;;;3.80;99.90;;;;;;5105787;28;19931;-65
2023/04/14 02:52:59;;;;;;;;;;;3.80;99.90;;;;;;5105503;28;19924;-64
2023/04/14 02:55:31;;;;;;;;;;;3.70;99.90;;;;;;5105386;28;19924;-67
2023/04/14 02:58:00;;;;;;;;;;;3.70;99.90;;;;;;5097976;28;19931;-66
2023/04/14 03:00:28;;;;;;;;;;;3.80;99.90;;;;;;5104387;28;19924;-66
2023/04/14 03:02:56;;;;;;;;;;;3.80;99.90;;;;;;5101250;28;19924;-66
2023/04/14 03:05:23;;;;;;;;;;;3.80;99.90;;;;;;5100611;28;19923;-66
2023/04/14 03:08:08;;;;;;;;;;;3.70;99.90;;;;;;5101463;28;20371;-68
2023/04/14 03:10:37;;;;;;;;;;;3.70;99.90;;;;;;5099147;28;19932;-66
2023/04/14 03:13:06;;;;;;;;;;;3.70;99.90;;;;;;5106090;28;20330;-66
2023/04/14 03:15:34;;;;;;;;;;;3.70;99.90;;;;;;5094957;28;19924;-65
2023/04/14 03:18:01;;;;;;;;;;;3.60;99.90;;;;;;5098092;28;19930;-67
2023/04/14 03:20:29;;;;;;;;;;;3.60;99.90;;;;;;5101340;28;19924;-65
2023/04/14 03:23:00;;;;;;;;;;;3.50;99.90;;;;;;5100955;28;19928;-67
2023/04/14 03:25:30;;;;;;;;;;;3.40;99.90;;;;;;5100840;28;20448;-66
2023/04/14 03:27:59;;;;;;;;;;;3.40;99.90;;;;;;5097407;28;19924;-65
2023/04/14 03:30:30;;;;;;;;;;;3.30;99.90;;;;;;5101201;28;20020;-67
2023/04/14 03:32:59;;;;;;;;;;;3.30;99.90;;;;;;5098064;28;19931;-66
2023/04/14 03:35:27;;;;;;;;;;;3.30;99.90;;;;;;5100530;28;19931;-66
2023/04/14 03:37:58;;;;;;;;;;;3.30;99.90;;;;;;5104711;28;19924;-66
2023/04/14 03:40:29;;;;;;;;;;;3.20;99.90;;;;;;5100734;28;19955;-66
2023/04/14 03:42:57;;;;;;;;;;;;;;;;;;5091772;28;19927;-65
2023/04/14 03:45:26;;;;;;;;;;;3.10;99.90;;;;;;5102718;28;19923;-66
2023/04/14 03:48:03;;;;;;;;;;;3.20;99.90;;;;;;5099814;28;19924;-66
2023/04/14 03:50:36;;;;;;;;;;;3.20;99.90;;;;;;5103051;28;19973;-66
2023/04/14 03:53:05;;;;;;;;;;;3.10;99.90;;;;;;5104775;28;19924;-65
2023/04/14 03:55:32;;;;;;;;;;;3.10;99.90;;;;;;5099101;28;19924;-65
2023/04/14 03:58:00;;;;;;;;;;;3.10;99.90;;;;;;5099855;28;19936;-65
2023/04/14 04:00:29;;;;;;;;;;;3.00;99.90;;;;;;5103538;28;19924;-66
2023/04/14 04:02:58;;;;;;;;;;;3.00;99.90;;;;;;5098984;28;19934;-66
2023/04/14 04:05:25;;;;;;;;;;;2.90;99.90;;;;;;5100137;28;19967;-66
2023/04/14 04:07:53;;;;;;;;;;;3.00;99.90;;;;;;5100335;28;19939;-65
2023/04/14 04:10:20;;;;;;;;;;;2.90;99.90;;;;;;5100362;28;19924;-65
2023/04/14 04:12:48;;;;;;;;;;;2.90;99.90;;;;;;5104724;28;19935;-66
2023/04/14 04:15:16;;;;;;;;;;;2.80;99.90;;;;;;5101843;28;19924;-66
2023/04/14 04:17:44;;;;;;;;;;;2.80;99.90;;;;;;5104153;28;19923;-66
2023/04/14 04:20:14;;;;;;;;;;;2.70;99.90;;;;;;5099948;28;19924;-67
2023/04/14 04:22:44;;;;;;;;;;;2.70;99.90;;;;;;5107952;28;19924;-66
2023/04/14 04:25:11;;;;;;;;;;;2.70;99.90;;;;;;5099693;28;19931;-66
2023/04/14 04:27:43;;;;;;;;;;;2.70;99.90;;;;;;5094284;28;19932;-66
2023/04/14 04:30:16;;;;;;;;;;;2.60;99.90;;;;;;5101624;28;19932;-66
2023/04/14 04:32:43;;;;;;;;;;;2.70;99.90;;;;;;5103073;28;19924;-65
2023/04/14 04:35:13;;;;;;;;;;;2.70;99.90;;;;;;5103772;28;19929;-66
2023/04/14 04:37:42;;;;;;;;;;;2.80;99.90;;;;;;5103563;28;19924;-66
2023/04/14 04:40:10;;;;;;;;;;;2.70;99.90;;;;;;5102860;28;19931;-66
2023/04/14 04:42:40;;;;;;;;;;;2.70;99.90;;;;;;5093532;28;19931;-65
2023/04/14 04:45:08;;;;;;;;;;;2.60;99.90;;;;;;5094091;28;19977;-66
2023/04/14 04:47:35;;;;;;;;;;;2.50;99.90;;;;;;5099612;28;19964;-66
2023/04/14 04:50:02;;;;;;;;;;;2.50;99.90;;;;;;5090480;28;19928;-64
2023/04/14 04:52:30;;;;;;;;;;;2.50;99.90;;;;;;5093715;28;19927;-65
2023/04/14 04:54:57;;;;;;;;;;;2.50;99.90;;;;;;5094224;28;19931;-65
2023/04/14 04:57:24;;;;;;;;;;;2.50;99.90;;;;;;5101626;28;19924;-65
2023/04/14 04:59:50;;;;;;;;;;;2.50;99.90;;;;;;5088179;28;19923;-65
2023/04/14 05:02:17;;;;;;;;;;;2.50;99.90;;;;;;5085890;28;19982;-65
2023/04/14 05:04:44;;;;;;;;;;;2.50;99.90;;;;;;5087940;28;19928;-66
2023/04/14 05:07:11;;;;;;;;;;;2.60;99.90;;;;;;5096638;28;19923;-64
2023/04/14 05:09:39;;;;;;;;;;;2.70;99.90;;;;;;5093624;28;19973;-64
2023/04/14 05:12:06;;;;;;;;;;;2.70;99.90;;;;;;5095555;28;19924;-65
2023/04/14 05:14:32;;;;;;;;;;;2.70;99.90;;;;;;5099053;28;19923;-65
2023/04/14 05:16:59;;;;;;;;;;;2.70;99.90;;;;;;5081807;28;19924;-66
2023/04/14 05:19:26;;;;;;;;;;;2.70;99.90;;;;;;5092514;28;19956;-65
2023/04/14 05:21:54;;;;;;;;;;;2.80;99.90;;;;;;5097811;28;19924;-66
2023/04/14 05:24:21;;;;;;;;;;;2.90;99.90;;;;;;5093340;28;19930;-66
2023/04/14 05:26:49;;;;;;;;;;;3.00;99.90;;;;;;5097528;28;19932;-66
2023/04/14 05:29:16;;;;;;;;;;;3.10;99.90;;;;;;5095525;28;19924;-66
2023/04/14 05:31:43;;;;;;;;;;;3.10;99.90;;;;;;5089012;28;19924;-66
2023/04/14 05:34:10;;;;;;;;;;;3.20;99.90;;;;;;5088666;28;20280;-66
2023/04/14 05:36:37;;;;;;;;;;;3.30;99.90;;;;;;5090948;28;20351;-64
2023/04/14 05:39:03;;;;;;;;;;;3.30;99.90;;;;;;5093438;28;19977;-65
2023/04/14 05:41:30;;;;;;;;;;;3.30;99.90;;;;;;5082793;28;19936;-65
2023/04/14 05:43:59;;;;;;;;;;;3.40;99.90;;;;;;5103287;28;19924;-66
2023/04/14 05:46:26;;;;;;;;;;;3.40;99.90;;;;;;5092640;28;19931;-65
2023/04/14 05:48:52;;;;;;;;;;;3.40;99.90;;;;;;5093888;28;19924;-66
2023/04/14 05:51:19;;;;;;;;;;;3.40;99.90;;;;;;5087859;28;19928;-64
2023/04/14 05:53:46;;;;;;;;;;;3.50;99.90;;;;;;5082797;28;19973;-65
2023/04/14 05:56:13;;;;;;;;;;;3.60;99.90;;;;;;5092098;28;19924;-65
2023/04/14 05:58:40;;;;;;;;;;;3.70;99.90;;;;;;5097106;28;20338;-64
2023/04/14 06:01:08;;;;;;;;;;;3.80;99.90;;;;;;5097932;28;19986;-65
2023/04/14 06:03:36;;;;;;;;;;;3.90;99.90;;;;;;5097020;28;19931;-66
2023/04/14 06:06:03;;;;;;;;;;;3.90;99.90;;;;;;5102948;28;19923;-64
2023/04/14 06:08:30;;;;;;;;;;;4.00;99.90;;;;;;5096073;28;19924;-64
2023/04/14 06:10:57;;;;;;;;;;;4.00;99.90;;;;;;5100365;28;19924;-65
2023/04/14 06:13:23;;;;;;;;;;;4.10;99.90;;;;;;5095864;28;20318;-65
2023/04/14 06:15:50;;;;;;;;;;;4.30;99.90;;;;;;5086971;28;19969;-64
2023/04/14 06:18:18;;;;;;;;;;;4.40;99.90;;;;;;5102217;28;20014;-66
2023/04/14 06:20:45;;;;;;;;;;;4.60;99.90;;;;;;5086686;28;19927;-66
2023/04/14 06:23:12;;;;;;;;;;;4.70;99.90;;;;;;5101060;28;20348;-65
2023/04/14 06:25:39;;;;;;;;;;;4.90;99.90;;;;;;5095676;28;19985;-65
2023/04/14 06:28:06;;;;;;;;;;;5.00;99.90;;;;;;5087816;28;20372;-66
2023/04/14 06:30:33;;;;;;;;;;;5.10;99.90;;;;;;5097172;28;19925;-66
2023/04/14 06:33:02;;;;;;;;;;;5.20;99.90;;;;;;5094253;28;19969;-64
2023/04/14 06:35:31;;;;;;;;;;;5.30;99.90;;;;;;5099768;28;19935;-66
2023/04/14 06:37:58;;;;;;;;;;;5.40;99.90;;;;;;5086128;28;19925;-65
2023/04/14 06:40:24;;;;;;;;;;;5.50;99.90;;;;;;5102360;28;20267;-65
2023/04/14 06:42:51;;;;;;;;;;;5.60;99.90;;;;;;5097718;28;20402;-66
2023/04/14 06:45:18;;;;;;;;;;;5.80;99.90;;;;;;5092789;28;20006;-65
2023/04/14 06:47:45;;;;;;;;;;;5.90;99.90;;;;;;5097311;28;19932;-66
2023/04/14 06:50:12;;;;;;;;;;;6.00;99.90;;;;;;5091463;28;20044;-65
2023/04/14 06:52:40;;;;;;;;;;;6.20;99.90;;;;;;5099984;28;19931;-66
2023/04/14 06:55:07;;;;;;;;;;;6.30;99.90;;;;;;5085758;28;19959;-65
2023/04/14 06:57:34;;;;;;;;;;;6.40;99.90;;;;;;5103378;28;19947;-66
2023/04/14 07:00:00;;;;;;;;;;;6.50;99.90;;;;;;5090285;28;20035;-66
2023/04/14 07:02:28;;;;;;;;;;;6.70;99.90;;;;;;5083325;28;19928;-64
2023/04/14 07:04:55;;;;;;;;;;;6.80;99.90;;;;;;5100972;28;20415;-65
2023/04/14 07:07:23;;;;;;;;;;;6.90;99.90;;;;;;5108863;28;19963;-65
2023/04/14 07:09:51;;;;;;;;;;;7.10;99.90;;;;;;5096363;28;20016;-66
2023/04/14 07:12:18;;;;;;;;;;;7.20;99.90;;;;;;5106289;28;19927;-64
2023/04/14 07:14:50;;;;;;;;;;;7.30;99.90;;;;;;5102257;28;19924;-66
2023/04/14 07:17:17;;;;;;;;;;;7.40;99.90;;;;;;5106496;28;19955;-66
2023/04/14 07:19:44;;;;;;;;;;;7.60;99.90;;;;;;5103135;28;20022;-66
2023/04/14 07:22:10;;;;;;;;;;;7.70;99.90;;;;;;5092986;28;19932;-67
2023/04/14 07:24:37;;;;;;;;;;;7.80;99.90;;;;;;5101158;28;19957;-65
2023/04/14 07:27:08;;;;;;;;;;;7.90;99.90;;;;;;5097116;28;20371;-66
2023/04/14 07:29:34;;;;;;;;;;;8.00;99.90;;;;;;5106909;28;19923;-65
2023/04/14 07:32:01;;;;;;;;;;;8.20;99.90;;;;;;5103692;28;19924;-66
2023/04/14 07:34:28;;;;;;;;;;;8.30;99.90;;;;;;5107440;28;20306;-67
2023/04/14 07:36:55;;;;;;;;;;;8.40;99.90;;;;;;5095714;28;19924;-63
2023/04/14 07:39:22;;;;;;;;;;;8.50;99.90;;;;;;5084106;28;19931;-66
2023/04/14 07:41:49;;;;;;;;;;;8.60;99.90;;;;;;5099983;28;19928;-67
2023/04/14 07:44:17;;;;;;;;;;;8.70;99.90;;;;;;5081103;28;19977;-66
2023/04/14 07:46:43;;;;;;;;;;;8.80;99.90;;;;;;5095684;28;20011;-66
2023/04/14 07:49:10;;;;;;;;;;;8.90;99.90;;;;;;5081700;28;19935;-66
2023/04/14 07:51:37;;;;;;;;;;;9.10;99.90;;;;;;5098798;28;20373;-66
2023/04/14 07:54:04;;;;;;;;;;;9.20;99.90;;;;;;5092665;28;19924;-66
2023/04/14 07:56:31;;;;;;;;;;;9.20;99.90;;;;;;5090259;28;19930;-65
2023/04/14 07:58:58;;;;;;;;;;;9.40;99.90;;;;;;5091877;28;20448;-66
2023/04/14 08:01:26;;;;;;;;;;;9.50;99.90;;;;;;5091780;28;19928;-66
2023/04/14 08:03:53;;;;;;;;;;;9.60;99.90;;;;;;5091837;28;19931;-66
2023/04/14 08:06:20;;;;;;;;;;;9.70;99.90;;;;;;5096243;28;19952;-66
2023/04/14 08:08:47;;;;;;;;;;;9.70;99.90;;;;;;5091771;28;19925;-66
2023/04/14 08:11:13;;;;;;;;;;;9.80;99.90;;;;;;5091628;28;19924;-66
2023/04/14 08:13:40;;;;;;;;;;;9.90;99.90;;;;;;5093570;28;19932;-67
2023/04/14 08:16:08;;;;;;;;;;;10.00;99.90;;;;;;5091893;28;20311;-66
2023/04/14 08:18:36;;;;;;;;;;;10.10;99.90;;;;;;5104684;28;19924;-66
2023/04/14 08:21:03;;;;;;;;;;;10.20;99.90;;;;;;5099703;28;19931;-67
2023/04/14 08:23:29;;;;;;;;;;;10.30;99.90;;;;;;5096158;28;19924;-66
2023/04/14 08:25:56;;;;;;;;;;;10.40;99.90;;;;;;5089830;28;19924;-66
2023/04/14 08:28:23;;;;;;;;;;;10.50;99.90;;;;;;5091089;28;19928;-65
2023/04/14 08:30:50;;;;;;;;;;;10.50;99.90;;;;;;5086110;28;19924;-66
2023/04/14 08:33:17;;;;;;;;;;;10.50;99.90;;;;;;5103140;28;19928;-66
2023/04/14 08:35:45;;;;;;;;;;;10.50;99.90;;;;;;5098661;28;19924;-65
2023/04/14 08:38:12;;;;;;;;;;;10.50;99.90;;;;;;5097192;28;20279;-65
2023/04/14 08:40:39;;;;;;;;;;;10.70;99.90;;;;;;5101679;28;20479;-67
2023/04/14 08:43:06;;;;;;;;;;;10.80;99.90;;;;;;5102866;28;19931;-66
2023/04/14 08:45:34;;;;;;;;;;;10.80;99.90;;;;;;5101437;28;19927;-66
2023/04/14 08:48:02;;;;;;;;;;;10.80;99.90;;;;;;5100725;28;19930;-66
2023/04/14 08:50:32;;;;;;;;;;;11.00;99.90;;;;;;5104069;28;20394;-66
2023/04/14 08:53:02;;;;;;;;;;;11.00;99.90;;;;;;5090559;28;20434;-67
2023/04/14 08:55:29;;;;;;;;;;;11.10;99.90;;;;;;5103058;28;19985;-65
2023/04/14 08:57:57;;;;;;;;;;;11.10;99.90;;;;;;5101579;28;19928;-65
2023/04/14 09:00:24;;;;;;;;;;;11.20;99.90;;;;;;5095393;28;19931;-65
2023/04/14 09:02:51;;;;;;;;;;;11.30;99.90;;;;;;5101689;28;19928;-67
2023/04/14 09:05:18;;;;;;;;;;;11.40;99.90;;;;;;5102821;28;19927;-65
2023/04/14 09:07:45;;;;;;;;;;;11.50;99.90;;;;;;5103170;28;19924;-65
2023/04/14 09:10:14;;;;;;;;;;;11.60;99.90;;;;;;5105023;28;20398;-67
2023/04/14 09:12:41;;;;;;;;;;;11.60;99.90;;;;;;5100722;28;19924;-66
2023/04/14 09:15:08;;;;;;;;;;;11.60;99.90;;;;;;5099047;28;19924;-66
2023/04/14 09:17:36;;;;;;;;;;;11.70;99.90;;;;;;5097274;28;19931;-67
2023/04/14 09:20:03;;;;;;;;;;;11.70;99.90;;;;;;5096348;28;19924;-67
2023/04/14 09:22:30;;;;;;;;;;;11.90;99.90;;;;;;5088501;28;19924;-66
2023/04/14 09:24:57;;;;;;;;;;;12.10;99.90;;;;;;5089310;28;19931;-65
2023/04/14 09:27:26;;;;;;;;;;;12.20;99.90;;;;;;5099878;28;19924;-66
2023/04/14 09:29:53;;;;;;;;;;;12.30;99.90;;;;;;5092906;28;20314;-66
2023/04/14 09:32:21;;;;;;;;;;;12.10;99.90;;;;;;5091652;28;19923;-67
2023/04/14 09:34:51;;;;;;;;;;;12.20;99.90;;;;;;5090347;28;19973;-66
2023/04/14 09:37:18;;;;;;;;;;;12.40;99.90;;;;;;5085145;28;19931;-65
2023/04/14 09:39:49;;;;;;;;;;;12.40;99.90;;;;;;5094716;28;19932;-65
2023/04/14 09:42:16;;;;;;;;;;;12.40;99.90;;;;;;5085732;28;19967;-65
2023/04/14 09:44:55;;;;;;;;;;;12.10;99.90;;;;;;5086282;28;19963;-65
2023/04/14 09:47:23;;;;;;;;;;;12.70;99.90;;;;;;5094799;28;19935;-65
2023/04/14 09:49:56;;;;;;;;;;;12.70;99.90;;;;;;5103514;28;19931;-67
2023/04/14 09:52:22;;;;;;;;;;;12.70;99.90;;;;;;5082374;28;20369;-65
2023/04/14 09:54:54;;;;;;;;;;;12.70;99.90;;;;;;5091490;28;19978;-67
2023/04/14 09:57:24;;;;;;;;;;;12.90;99.90;;;;;;5087436;28;20405;-67
2023/04/14 09:59:51;;;;;;;;;;;13.00;99.90;;;;;;5100175;28;20452;-67
2023/04/14 10:02:19;;;;;;;;;;;13.20;99.90;;;;;;5090968;28;19928;-66
2023/04/14 10:04:46;;;;;;;;;;;13.30;99.90;;;;;;5101782;28;19931;-66
2023/04/14 10:07:17;;;;;;;;;;;13.40;99.90;;;;;;5094501;28;19937;-66
2023/04/14 10:09:47;;;;;;;;;;;13.50;99.90;;;;;;5094109;28;19924;-66
2023/04/14 10:12:17;;;;;;;;;;;13.60;99.90;;;;;;5088502;28;20337;-66
2023/04/14 10:14:44;;;;;;;;;;;13.70;99.90;;;;;;5086422;28;19924;-66
2023/04/14 10:17:12;;;;;;;;;;;13.70;99.90;;;;;;5089970;28;19924;-65
2023/04/14 10:19:40;;;;;;;;;;;13.80;99.90;;;;;;5091937;28;20010;-66
2023/04/14 10:22:07;;;;;;;;;;;13.90;99.90;;;;;;5081180;28;19925;-65
2023/04/14 10:24:34;;;;;;;;;;;14.00;99.90;;;;;;5085136;28;20364;-65
2023/04/14 10:27:01;;;;;;;;;;;14.20;99.90;;;;;;5084670;28;19924;-66
2023/04/14 10:29:28;;;;;;;;;;;14.30;99.90;;;;;;5088849;28;20420;-66
2023/04/14 10:31:57;;;;;;;;;;;14.40;99.90;;;;;;5088101;28;19976;-66
2023/04/14 10:34:24;;;;;;;;;;;14.70;99.90;;;;;;5101367;28;19924;-66
2023/04/14 10:36:53;;;;;;;;;;;14.80;99.90;;;;;;5100484;28;19981;-67
2023/04/14 10:39:21;;;;;;;;;;;14.70;99.90;;;;;;5094342;28;19970;-66
2023/04/14 10:41:48;;;;;;;;;;;14.90;99.90;;;;;;5088072;28;19928;-65
2023/04/14 10:44:25;;;;;;;;;;;15.10;99.90;;;;;;5092052;28;19925;-67
2023/04/14 10:46:52;;;;;;;;;;;15.10;99.90;;;;;;5097361;28;19954;-67
2023/04/14 10:49:21;;;;;;;;;;;15.00;99.90;;;;;;5094524;28;20474;-66
2023/04/14 10:51:48;;;;;;;;;;;15.20;99.90;;;;;;5099683;28;20008;-66
2023/04/14 10:54:17;;;;;;;;;;;15.30;99.90;;;;;;5101298;28;19947;-67
2023/04/14 10:57:07;;;;;;;;;;;15.40;99.90;;;;;;5100260;28;19927;-66
2023/04/14 10:59:34;;;;;;;;;;;15.90;99.90;;;;;;5090177;28;19924;-66
2023/04/14 11:02:01;;;;;;;;;;;16.40;99.90;;;;;;5099289;28;19930;-67
2023/04/14 11:04:28;;;;;;;;;;;16.80;99.90;;;;;;5096691;28;19924;-66
2023/04/14 11:06:57;;;;;;;;;;;17.10;99.90;;;;;;5100663;28;20436;-67
2023/04/14 11:09:27;;;;;;;;;;;17.60;99.90;;;;;;5104629;28;20397;-67
2023/04/14 11:11:55;;;;;;;;;;;18.30;99.90;;;;;;5101162;28;19967;-67
2023/04/14 11:14:25;;;;;;;;;;;18.50;99.90;;;;;;5105005;28;20014;-67
2023/04/14 11:16:52;;;;;;;;;;;18.40;99.90;;;;;;5106851;28;19969;-67
2023/04/14 11:19:19;;;;;;;;;;;18.50;99.90;;;;;;5104892;28;19924;-67
2023/04/14 11:21:49;;;;;;;;;;;18.30;99.90;;;;;;5091281;28;19924;-67
2023/04/14 11:24:16;;;;;;;;;;;18.20;99.90;;;;;;5084383;28;20010;-66
2023/04/14 11:26:46;;;;;;;;;;;17.90;99.90;;;;;;5086424;28;19970;-67
2023/04/14 11:29:13;;;;;;;;;;;17.30;99.90;;;;;;5104780;28;20401;-67
2023/04/14 11:31:39;;;;;;;;;;;20.00;99.90;;;;;;5086297;28;19932;-66
2023/04/14 11:34:06;;;;;;;;;;;23.10;99.90;;;;;;5096919;28;19931;-67
2023/04/14 11:36:35;;;;;;;;;;;24.70;99.90;;;;;;5087147;28;19924;-67
2023/04/14 11:39:02;;;;;;;;;;;26.20;99.90;;;;;;5081897;28;19924;-67
2023/04/14 11:41:29;;;;;;;;;;;27.10;99.90;;;;;;5089272;28;19930;-67
2023/04/14 11:43:57;;;;;;;;;;;27.90;99.90;;;;;;5075826;28;19924;-66
2023/04/14 11:46:24;;;;;;;;;;;28.80;99.90;;;;;;5086820;28;19971;-68
2023/04/14 11:48:54;;;;;;;;;;;30.20;99.90;;;;;;5087732;28;19930;-68
2023/04/14 11:51:20;;;;;;;;;;;30.90;99.90;;;;;;5092159;28;19927;-68
2023/04/14 11:53:47;;;;;;;;;;;29.00;99.90;;;;;;5087128;28;19925;-68
2023/04/14 11:56:14;;;;;;;;;;;28.10;99.90;;;;;;5087876;28;19973;-68
2023/04/14 11:58:41;;;;;;;;;;;28.70;99.90;;;;;;5090822;28;19924;-67
2023/04/14 12:01:13;;;;;;;;;;;27.80;99.90;;;;;;5087389;28;19930;-67
2023/04/14 12:03:39;;;;;;;;;;;26.90;99.90;;;;;;5084305;28;19924;-68
2023/04/14 12:06:06;;;;;;;;;;;24.70;99.90;;;;;;5097577;28;19930;-67
2023/04/14 12:08:33;;;;;;;;;;;22.80;99.90;;;;;;5092686;28;19928;-68
2023/04/14 12:11:12;;;;;;;;;;;21.40;99.90;;;;;;5097832;28;19928;-68
2023/04/14 12:13:40;;;;;;;;;;;21.00;99.90;;;;;;5092327;28;20027;-68
2023/04/14 12:16:07;;;;;;;;;;;20.70;99.90;;;;;;5099548;28;19924;-68
2023/04/14 12:18:35;;;;;;;;;;;20.40;99.90;;;;;;5085419;28;19924;-68
2023/04/14 12:21:02;;;;;;;;;;;22.20;99.90;;;;;;5087102;28;19924;-69
2023/04/14 12:23:29;;;;;;;;;;;24.10;99.90;;;;;;5093629;28;19973;-68
2023/04/14 12:25:56;;;;;;;;;;;25.70;99.90;;;;;;5100700;28;19981;-68
2023/04/14 12:28:26;;;;;;;;;;;26.90;99.90;;;;;;5091000;28;19931;-69
2023/04/14 12:30:53;;;;;;;;;;;27.40;99.90;;;;;;5092956;28;19924;-66
2023/04/14 12:33:22;;;;;;;;;;;27.80;99.90;;;;;;5096192;28;19924;-69
2023/04/14 12:35:52;;;;;;;;;;;28.10;99.90;;;;;;5083570;28;19925;-67
2023/04/14 12:38:19;;;;;;;;;;;26.40;99.90;;;;;;5087943;28;19925;-66
2023/04/14 12:40:47;;;;;;;;;;;25.10;99.90;;;;;;5089383;28;19931;-68
2023/04/14 12:43:15;;;;;;;;;;;23.60;99.90;;;;;;5092760;28;20428;-68
2023/04/14 12:45:42;;;;;;;;;;;22.50;99.90;;;;;;5091750;28;19950;-67
2023/04/14 12:48:09;;;;;;;;;;;22.10;99.90;;;;;;5086279;28;19928;-68
2023/04/14 12:50:36;;;;;;;;;;;22.50;99.90;;;;;;5085890;28;19994;-68
2023/04/14 12:53:19;;;;;;;;;;;22.00;99.90;;;;;;5099374;28;21303;-68
2023/04/14 12:55:47;;;;;;;;;;;21.20;99.90;;;;;;5088803;28;19974;-67
2023/04/14 12:58:15;;;;;;;;;;;21.40;99.90;;;;;;5092291;28;20391;-68
2023/04/14 13:00:42;;;;;;;;;;;20.90;99.90;;;;;;5095848;28;20490;-68
2023/04/14 13:03:09;;;;;;;;;;;20.30;99.90;;;;;;5090373;28;20383;-69
2023/04/14 13:05:35;;;;;;;;;;;19.90;99.90;;;;;;5090556;28;19932;-69
2023/04/14 13:08:02;;;;;;;;;;;20.00;99.90;;;;;;5085772;28;19924;-68
2023/04/14 13:10:29;;;;;;;;;;;20.10;99.90;;;;;;5087522;28;20279;-68
2023/04/14 13:12:57;;;;;;;;;;;19.90;99.90;;;;;;5096266;28;19938;-68
2023/04/14 13:15:24;;;;;;;;;;;19.60;99.90;;;;;;5087110;28;19924;-70
2023/04/14 13:17:51;;;;;;;;;;;19.20;99.90;;;;;;5093693;28;19924;-67
2023/04/14 13:20:18;;;;;;;;;;;19.10;99.90;;;;;;5081627;28;19924;-69
2023/04/14 13:22:44;;;;;;;;;;;18.80;99.90;;;;;;5094701;28;19928;-69
2023/04/14 13:25:11;;;;;;;;;;;18.80;99.90;;;;;;5079813;28;20391;-69
2023/04/14 13:27:38;;;;;;;;;;;18.90;99.90;;;;;;5097344;28;19977;-68
2023/04/14 13:30:07;;;;;;;;;;;19.80;99.90;;;;;;5091362;28;19924;-68
2023/04/14 13:32:34;;;;;;;;;;;21.20;99.90;;;;;;5092928;28;20340;-69
2023/04/14 13:35:01;;;;;;;;;;;22.50;99.90;;;;;;5091055;28;19931;-69
2023/04/14 13:37:28;;;;;;;;;;;23.60;99.90;;;;;;5082962;28;19978;-69
2023/04/14 13:39:55;;;;;;;;;;;25.20;99.90;;;;;;5095688;28;19924;-70
2023/04/14 13:42:21;;;;;;;;;;;26.20;99.90;;;;;;5085857;28;19959;-70
2023/04/14 13:44:48;;;;;;;;;;;26.90;99.90;;;;;;5087338;28;19924;-69
2023/04/14 13:47:17;;;;;;;;;;;27.50;99.90;;;;;;5086432;28;19924;-69
2023/04/14 13:49:44;;;;;;;;;;;;;;;;;;5083947;28;19928;-70
2023/04/14 13:52:11;;;;;;;;;;;27.70;99.90;;;;;;5089975;28;19931;-68
2023/04/14 13:54:38;;;;;;;;;;;27.40;99.90;;;;;;5088432;28;19977;-68
2023/04/14 13:57:05;;;;;;;;;;;27.80;99.90;;;;;;5088647;28;20267;-67
2023/04/14 13:59:31;;;;;;;;;;;25.20;99.90;;;;;;5090878;28;19924;-69
2023/04/14 14:01:58;;;;;;;;;;;22.40;99.90;;;;;;5094588;28;19931;-70
2023/04/14 14:04:27;;;;;;;;;;;21.60;99.90;;;;;;5083860;28;19974;-69
2023/04/14 14:06:53;;;;;;;;;;;20.00;99.90;;;;;;5101341;28;20018;-67
2023/04/14 14:09:20;;;;;;;;;;;19.30;99.90;;;;;;5087613;28;19928;-71
2023/04/14 14:11:47;;;;;;;;;;;19.30;99.90;;;;;;5093411;28;20509;-69
2023/04/14 14:14:13;;;;;;;;;;;19.20;99.90;;;;;;5086231;28;19924;-69
2023/04/14 14:16:40;;;;;;;;;;;19.00;99.90;;;;;;5095178;28;19925;-70
2023/04/14 14:19:09;;;;;;;;;;;19.00;99.90;;;;;;5080926;28;19928;-69
2023/04/14 14:21:37;;;;;;;;;;;19.00;99.90;;;;;;5086211;28;20422;-69
2023/04/14 14:24:04;;;;;;;;;;;18.40;99.90;;;;;;5090687;28;19969;-69
2023/04/14 14:26:31;;;;;;;;;;;18.20;99.90;;;;;;5088040;28;19924;-71
2023/04/14 14:28:58;;;;;;;;;;;18.20;99.90;;;;;;5089814;28;19928;-69
2023/04/14 14:31:25;;;;;;;;;;;17.90;99.90;;;;;;5081023;28;19993;-69